Hlavní strana
METAR-TAF:

METAR-TAF

Letiště :

Fort Rucker, Alabama, Spojené státy americké

zeměpisná šířka: 31-21N, zeměpisná délka: 085-40W, výška: 97 m

Aktuální stav počasí

Zpráva byla vytvořena před 14 minutami, v 06:38 UTC
Západojihozápadní vítr 3 kt
Teplota 20°C
Vlhkost vzduchu 100%
Tlak 1020 hPa
Viditelnost: 14.5 km
Zataženo ve výšce 600 ft

METAR: KHEY 190638Z AUTO 24003KT 9SM OVC006 20/20 A3011 RMK AO2 SLP196

Čas: 00:52 (06:52 UTC)


TAF: chybějící

Stav a předpovědi počasí z více než 4 000 letišť (zprávy METAR a TAF).

Červené a žluté tečky na mapě představují dostupné meteorologické stanice.

Když kurzor umístíte na tečku, zobrazí se název stanice.

Pak kliknutím zobrazíte stav a předpověď počasí.

Chcete-li změnit mapu, kliknutím na zelené tlačítko se znaménkem +mapu přiblížíte, kliknutím na zelené tlačítko se znaménkem – mapu oddálíte a kliknutím na zelené šipky přejdete na sousední mapy.


METAR-TAF: